sensor_id;sensor_type;location;lat;lon;timestamp;temperature;humidity
17333;DHT22;8784;50.94667800;7.08448400;2023-12-20T00:04:30;9.30;99.90
17333;DHT22;8784;50.94667800;7.08448400;2023-12-20T00:06:57;9.30;99.90
17333;DHT22;8784;50.94667800;7.08448400;2023-12-20T00:09:24;9.30;99.90
17333;DHT22;8784;50.94667800;7.08448400;2023-12-20T00:11:51;9.30;99.90
17333;DHT22;8784;50.94667800;7.08448400;2023-12-20T00:14:18;9.20;99.90
17333;DHT22;8784;50.94667800;7.08448400;2023-12-20T00:16:44;9.20;99.90
17333;DHT22;8784;50.94667800;7.08448400;2023-12-20T00:19:12;9.30;99.90
17333;DHT22;8784;50.94667800;7.08448400;2023-12-20T00:21:41;9.30;99.90
17333;DHT22;8784;50.94667800;7.08448400;2023-12-20T00:24:09;9.30;99.90
17333;DHT22;8784;50.94667800;7.08448400;2023-12-20T00:26:36;9.30;99.90
17333;DHT22;8784;50.94667800;7.08448400;2023-12-20T00:29:03;9.20;99.90
17333;DHT22;8784;50.94667800;7.08448400;2023-12-20T00:31:30;9.20;99.90
17333;DHT22;8784;50.94667800;7.08448400;2023-12-20T00:33:56;9.30;99.90
17333;DHT22;8784;50.94667800;7.08448400;2023-12-20T00:36:23;9.20;99.90
17333;DHT22;8784;50.94667800;7.08448400;2023-12-20T00:38:52;9.10;99.90
17333;DHT22;8784;50.94667800;7.08448400;2023-12-20T00:41:19;9.20;99.90
17333;DHT22;8784;50.94667800;7.08448400;2023-12-20T00:43:46;9.20;99.90
17333;DHT22;8784;50.94667800;7.08448400;2023-12-20T00:46:13;9.10;99.90
17333;DHT22;8784;50.94667800;7.08448400;2023-12-20T00:48:39;9.10;99.90
17333;DHT22;8784;50.94667800;7.08448400;2023-12-20T00:51:07;9.20;99.90
17333;DHT22;8784;50.94667800;7.08448400;2023-12-20T00:53:35;9.10;99.90
17333;DHT22;8784;50.94667800;7.08448400;2023-12-20T00:56:03;9.10;99.90
17333;DHT22;8784;50.94667800;7.08448400;2023-12-20T00:58:30;9.10;99.90
17333;DHT22;8784;50.94667800;7.08448400;2023-12-20T01:00:57;9.10;99.90
17333;DHT22;8784;50.94667800;7.08448400;2023-12-20T01:03:24;9.10;99.90
17333;DHT22;8784;50.94667800;7.08448400;2023-12-20T01:05:50;9.20;99.90
17333;DHT22;8784;50.94667800;7.08448400;2023-12-20T01:08:17;9.10;99.90
17333;DHT22;8784;50.94667800;7.08448400;2023-12-20T01:10:44;9.20;99.90
17333;DHT22;8784;50.94667800;7.08448400;2023-12-20T01:13:13;9.20;99.90
17333;DHT22;8784;50.94667800;7.08448400;2023-12-20T01:15:40;9.20;99.90
17333;DHT22;8784;50.94667800;7.08448400;2023-12-20T01:18:07;9.20;99.90
17333;DHT22;8784;50.94667800;7.08448400;2023-12-20T01:20:34;9.10;99.90
17333;DHT22;8784;50.94667800;7.08448400;2023-12-20T01:23:01;9.00;99.90
17333;DHT22;8784;50.94667800;7.08448400;2023-12-20T01:25:28;8.90;99.90
17333;DHT22;8784;50.94667800;7.08448400;2023-12-20T01:27:55;8.90;99.90
17333;DHT22;8784;50.94667800;7.08448400;2023-12-20T01:30:23;8.80;99.90
17333;DHT22;8784;50.94667800;7.08448400;2023-12-20T01:32:50;8.70;99.90
17333;DHT22;8784;50.94667800;7.08448400;2023-12-20T01:35:17;8.60;99.90
17333;DHT22;8784;50.94667800;7.08448400;2023-12-20T01:37:44;8.60;99.90
17333;DHT22;8784;50.94667800;7.08448400;2023-12-20T01:40:11;8.60;99.90
17333;DHT22;8784;50.94667800;7.08448400;2023-12-20T01:42:38;8.60;99.90
17333;DHT22;8784;50.94667800;7.08448400;2023-12-20T01:45:05;8.60;99.90
17333;DHT22;8784;50.94667800;7.08448400;2023-12-20T01:47:34;8.70;99.90
17333;DHT22;8784;50.94667800;7.08448400;2023-12-20T01:50:01;8.70;99.90
17333;DHT22;8784;50.94667800;7.08448400;2023-12-20T01:52:29;8.70;99.90
17333;DHT22;8784;50.94667800;7.08448400;2023-12-20T01:54:57;8.70;99.90
17333;DHT22;8784;50.94667800;7.08448400;2023-12-20T01:57:28;8.80;99.90
17333;DHT22;8784;50.94667800;7.08448400;2023-12-20T01:59:56;8.80;99.90
17333;DHT22;8784;50.94667800;7.08448400;2023-12-20T02:02:23;8.80;99.90
17333;DHT22;8784;50.94667800;7.08448400;2023-12-20T02:04:51;8.90;99.90
17333;DHT22;8784;50.94667800;7.08448400;2023-12-20T02:07:18;8.90;99.90
17333;DHT22;8784;50.94667800;7.08448400;2023-12-20T02:09:46;8.90;99.90
17333;DHT22;8784;50.94667800;7.08448400;2023-12-20T02:12:13;8.80;99.90
17333;DHT22;8784;50.94667800;7.08448400;2023-12-20T02:14:40;8.80;99.90
17333;DHT22;8784;50.94667800;7.08448400;2023-12-20T02:17:07;8.70;99.90
17333;DHT22;8784;50.94667800;7.08448400;2023-12-20T02:19:34;8.60;99.90
17333;DHT22;8784;50.94667800;7.08448400;2023-12-20T02:22:09;8.50;99.90
17333;DHT22;8784;50.94667800;7.08448400;2023-12-20T02:24:36;8.50;99.90
17333;DHT22;8784;50.94667800;7.08448400;2023-12-20T02:27:03;8.40;99.90
17333;DHT22;8784;50.94667800;7.08448400;2023-12-20T02:29:32;8.30;99.90
17333;DHT22;8784;50.94667800;7.08448400;2023-12-20T02:32:00;8.30;99.90
17333;DHT22;8784;50.94667800;7.08448400;2023-12-20T02:34:26;8.20;99.90
17333;DHT22;8784;50.94667800;7.08448400;2023-12-20T02:36:53;8.10;99.90
17333;DHT22;8784;50.94667800;7.08448400;2023-12-20T02:39:22;8.10;99.90
17333;DHT22;8784;50.94667800;7.08448400;2023-12-20T02:41:49;8.00;99.90
17333;DHT22;8784;50.94667800;7.08448400;2023-12-20T02:44:16;8.10;99.90
17333;DHT22;8784;50.94667800;7.08448400;2023-12-20T02:46:43;7.90;99.90
17333;DHT22;8784;50.94667800;7.08448400;2023-12-20T02:49:10;7.90;99.90
17333;DHT22;8784;50.94667800;7.08448400;2023-12-20T02:51:37;7.80;99.90
17333;DHT22;8784;50.94667800;7.08448400;2023-12-20T02:54:04;7.70;99.90
17333;DHT22;8784;50.94667800;7.08448400;2023-12-20T02:56:33;7.80;99.90
17333;DHT22;8784;50.94667800;7.08448400;2023-12-20T07:37:01;8.40;99.90
17333;DHT22;8784;50.94667800;7.08448400;2023-12-20T07:39:28;8.50;99.90
17333;DHT22;8784;50.94667800;7.08448400;2023-12-20T07:41:55;8.50;99.90
17333;DHT22;8784;50.94667800;7.08448400;2023-12-20T07:44:22;8.50;99.90
17333;DHT22;8784;50.94667800;7.08448400;2023-12-20T07:46:49;8.40;99.90
17333;DHT22;8784;50.94667800;7.08448400;2023-12-20T07:49:16;8.40;99.90
17333;DHT22;8784;50.94667800;7.08448400;2023-12-20T07:51:43;8.50;99.90
17333;DHT22;8784;50.94667800;7.08448400;2023-12-20T07:54:11;8.40;99.90
17333;DHT22;8784;50.94667800;7.08448400;2023-12-20T07:56:38;8.40;99.90
17333;DHT22;8784;50.94667800;7.08448400;2023-12-20T07:59:09;8.40;99.90
17333;DHT22;8784;50.94667800;7.08448400;2023-12-20T08:01:36;8.50;99.90
17333;DHT22;8784;50.94667800;7.08448400;2023-12-20T08:04:03;8.40;99.90
17333;DHT22;8784;50.94667800;7.08448400;2023-12-20T08:06:30;8.40;99.90
17333;DHT22;8784;50.94667800;7.08448400;2023-12-20T08:08:57;8.40;99.90
17333;DHT22;8784;50.94667800;7.08448400;2023-12-20T08:11:25;8.40;99.90
17333;DHT22;8784;50.94667800;7.08448400;2023-12-20T08:13:52;8.50;99.90
17333;DHT22;8784;50.94667800;7.08448400;2023-12-20T08:16:19;8.50;99.90
17333;DHT22;8784;50.94667800;7.08448400;2023-12-20T08:18:46;8.50;99.90
17333;DHT22;8784;50.94667800;7.08448400;2023-12-20T08:21:13;8.40;99.90
17333;DHT22;8784;50.94667800;7.08448400;2023-12-20T08:23:40;8.50;99.90
17333;DHT22;8784;50.94667800;7.08448400;2023-12-20T08:26:08;8.40;99.90
17333;DHT22;8784;50.94667800;7.08448400;2023-12-20T08:28:37;8.50;99.90
17333;DHT22;8784;50.94667800;7.08448400;2023-12-20T08:31:04;8.50;99.90
17333;DHT22;8784;50.94667800;7.08448400;2023-12-20T08:33:31;8.50;99.90
17333;DHT22;8784;50.94667800;7.08448400;2023-12-20T08:35:57;8.50;99.90
17333;DHT22;8784;50.94667800;7.08448400;2023-12-20T08:38:24;8.50;99.90
17333;DHT22;8784;50.94667800;7.08448400;2023-12-20T08:40:51;8.50;99.90
17333;DHT22;8784;50.94667800;7.08448400;2023-12-20T08:43:18;8.50;99.90
17333;DHT22;8784;50.94667800;7.08448400;2023-12-20T08:45:46;8.50;99.90
17333;DHT22;8784;50.94667800;7.08448400;2023-12-20T08:48:13;8.50;99.90
17333;DHT22;8784;50.94667800;7.08448400;2023-12-20T08:50:40;8.50;99.90
17333;DHT22;8784;50.94667800;7.08448400;2023-12-20T08:53:07;8.60;99.90
17333;DHT22;8784;50.94667800;7.08448400;2023-12-20T08:55:34;8.60;99.90
17333;DHT22;8784;50.94667800;7.08448400;2023-12-20T08:58:01;8.70;99.90
17333;DHT22;8784;50.94667800;7.08448400;2023-12-20T09:00:28;8.60;99.90
17333;DHT22;8784;50.94667800;7.08448400;2023-12-20T09:02:56;8.70;99.90
17333;DHT22;8784;50.94667800;7.08448400;2023-12-20T09:05:23;8.70;99.90
17333;DHT22;8784;50.94667800;7.08448400;2023-12-20T09:07:50;8.70;99.90
17333;DHT22;8784;50.94667800;7.08448400;2023-12-20T09:10:17;8.70;99.90
17333;DHT22;8784;50.94667800;7.08448400;2023-12-20T09:12:47;8.70;99.90
17333;DHT22;8784;50.94667800;7.08448400;2023-12-20T09:15:15;8.60;99.90
17333;DHT22;8784;50.94667800;7.08448400;2023-12-20T09:17:41;8.70;99.90
17333;DHT22;8784;50.94667800;7.08448400;2023-12-20T09:20:11;8.70;99.90
17333;DHT22;8784;50.94667800;7.08448400;2023-12-20T09:22:39;8.60;99.90
17333;DHT22;8784;50.94667800;7.08448400;2023-12-20T09:25:08;8.70;99.90
17333;DHT22;8784;50.94667800;7.08448400;2023-12-20T09:27:35;8.70;99.90
17333;DHT22;8784;50.94667800;7.08448400;2023-12-20T09:30:03;8.70;99.90
17333;DHT22;8784;50.94667800;7.08448400;2023-12-20T09:32:30;8.80;99.90
17333;DHT22;8784;50.94667800;7.08448400;2023-12-20T09:34:57;8.70;99.90
17333;DHT22;8784;50.94667800;7.08448400;2023-12-20T09:37:27;8.70;99.90
17333;DHT22;8784;50.94667800;7.08448400;2023-12-20T09:39:54;8.70;99.90
17333;DHT22;8784;50.94667800;7.08448400;2023-12-20T09:42:26;8.70;99.90
17333;DHT22;8784;50.94667800;7.08448400;2023-12-20T09:44:58;8.70;99.90
17333;DHT22;8784;50.94667800;7.08448400;2023-12-20T09:47:27;8.70;99.90
17333;DHT22;8784;50.94667800;7.08448400;2023-12-20T09:49:54;8.70;99.90
17333;DHT22;8784;50.94667800;7.08448400;2023-12-20T09:52:22;8.80;99.90
17333;DHT22;8784;50.94667800;7.08448400;2023-12-20T09:54:52;8.80;99.90
17333;DHT22;8784;50.94667800;7.08448400;2023-12-20T09:57:20;8.80;99.90
17333;DHT22;8784;50.94667800;7.08448400;2023-12-20T09:59:47;8.80;99.90
17333;DHT22;8784;50.94667800;7.08448400;2023-12-20T10:02:14;8.90;99.90
17333;DHT22;8784;50.94667800;7.08448400;2023-12-20T10:04:46;8.90;99.90
17333;DHT22;8784;50.94667800;7.08448400;2023-12-20T10:07:14;8.90;99.90
17333;DHT22;8784;50.94667800;7.08448400;2023-12-20T10:09:42;8.90;99.90
17333;DHT22;8784;50.94667800;7.08448400;2023-12-20T10:12:10;9.00;99.90
17333;DHT22;8784;50.94667800;7.08448400;2023-12-20T10:14:39;9.00;99.90
17333;DHT22;8784;50.94667800;7.08448400;2023-12-20T10:17:06;8.90;99.90
17333;DHT22;8784;50.94667800;7.08448400;2023-12-20T10:19:33;8.90;99.90
17333;DHT22;8784;50.94667800;7.08448400;2023-12-20T10:22:01;8.90;99.90
17333;DHT22;8784;50.94667800;7.08448400;2023-12-20T10:24:28;8.90;99.90
17333;DHT22;8784;50.94667800;7.08448400;2023-12-20T10:27:02;8.90;99.90
17333;DHT22;8784;50.94667800;7.08448400;2023-12-20T10:29:35;8.90;99.90
17333;DHT22;8784;50.94667800;7.08448400;2023-12-20T10:32:21;8.90;99.90
17333;DHT22;8784;50.94667800;7.08448400;2023-12-20T10:34:48;8.90;99.90
17333;DHT22;8784;50.94667800;7.08448400;2023-12-20T10:37:15;9.00;99.90
17333;DHT22;8784;50.94667800;7.08448400;2023-12-20T10:39:43;9.10;99.90
17333;DHT22;8784;50.94667800;7.08448400;2023-12-20T10:42:11;9.10;99.90
17333;DHT22;8784;50.94667800;7.08448400;2023-12-20T10:44:40;9.10;99.90
17333;DHT22;8784;50.94667800;7.08448400;2023-12-20T10:47:07;9.10;99.90
17333;DHT22;8784;50.94667800;7.08448400;2023-12-20T10:49:36;9.00;99.90
17333;DHT22;8784;50.94667800;7.08448400;2023-12-20T10:52:06;9.00;99.90
17333;DHT22;8784;50.94667800;7.08448400;2023-12-20T10:54:33;9.00;99.90
17333;DHT22;8784;50.94667800;7.08448400;2023-12-20T10:57:01;8.90;99.90
17333;DHT22;8784;50.94667800;7.08448400;2023-12-20T10:59:33;9.00;99.90
17333;DHT22;8784;50.94667800;7.08448400;2023-12-20T11:02:04;9.00;99.90
17333;DHT22;8784;50.94667800;7.08448400;2023-12-20T11:04:37;8.90;99.90
17333;DHT22;8784;50.94667800;7.08448400;2023-12-20T11:07:13;8.90;99.90
17333;DHT22;8784;50.94667800;7.08448400;2023-12-20T11:09:49;8.90;99.90
17333;DHT22;8784;50.94667800;7.08448400;2023-12-20T11:12:25;8.90;99.90
17333;DHT22;8784;50.94667800;7.08448400;2023-12-20T11:14:55;8.90;99.90
17333;DHT22;8784;50.94667800;7.08448400;2023-12-20T11:17:24;8.90;99.90
17333;DHT22;8784;50.94667800;7.08448400;2023-12-20T11:20:05;8.90;99.90
17333;DHT22;8784;50.94667800;7.08448400;2023-12-20T11:22:33;8.90;99.90
17333;DHT22;8784;50.94667800;7.08448400;2023-12-20T11:25:04;9.00;99.90
17333;DHT22;8784;50.94667800;7.08448400;2023-12-20T11:27:32;9.00;99.90
17333;DHT22;8784;50.94667800;7.08448400;2023-12-20T11:29:59;9.00;99.90
17333;DHT22;8784;50.94667800;7.08448400;2023-12-20T11:32:33;9.00;99.90
17333;DHT22;8784;50.94667800;7.08448400;2023-12-20T11:35:17;8.90;99.90
17333;DHT22;8784;50.94667800;7.08448400;2023-12-20T11:37:45;8.90;99.90
17333;DHT22;8784;50.94667800;7.08448400;2023-12-20T11:40:15;8.90;99.90
17333;DHT22;8784;50.94667800;7.08448400;2023-12-20T11:42:43;8.90;99.90
17333;DHT22;8784;50.94667800;7.08448400;2023-12-20T11:45:13;9.00;99.90
17333;DHT22;8784;50.94667800;7.08448400;2023-12-20T11:47:46;9.00;99.90
17333;DHT22;8784;50.94667800;7.08448400;2023-12-20T11:50:15;9.10;99.90
17333;DHT22;8784;50.94667800;7.08448400;2023-12-20T11:52:42;9.10;99.90
17333;DHT22;8784;50.94667800;7.08448400;2023-12-20T11:55:09;9.10;99.90
17333;DHT22;8784;50.94667800;7.08448400;2023-12-20T11:57:37;9.10;99.90
17333;DHT22;8784;50.94667800;7.08448400;2023-12-20T12:00:04;9.10;99.90
17333;DHT22;8784;50.94667800;7.08448400;2023-12-20T12:02:32;9.10;99.90
17333;DHT22;8784;50.94667800;7.08448400;2023-12-20T12:05:00;9.10;99.90
17333;DHT22;8784;50.94667800;7.08448400;2023-12-20T12:07:27;9.10;99.90
17333;DHT22;8784;50.94667800;7.08448400;2023-12-20T12:09:54;9.10;99.90
17333;DHT22;8784;50.94667800;7.08448400;2023-12-20T12:12:21;9.10;99.90
17333;DHT22;8784;50.94667800;7.08448400;2023-12-20T12:14:49;9.10;99.90
17333;DHT22;8784;50.94667800;7.08448400;2023-12-20T12:17:16;9.10;99.90
17333;DHT22;8784;50.94667800;7.08448400;2023-12-20T12:19:43;9.10;99.90
17333;DHT22;8784;50.94667800;7.08448400;2023-12-20T12:22:13;9.10;99.90
17333;DHT22;8784;50.94667800;7.08448400;2023-12-20T12:24:41;9.10;99.90
17333;DHT22;8784;50.94667800;7.08448400;2023-12-20T12:27:08;9.10;99.90
17333;DHT22;8784;50.94667800;7.08448400;2023-12-20T12:29:36;9.00;99.90
17333;DHT22;8784;50.94667800;7.08448400;2023-12-20T12:32:05;9.10;99.90
17333;DHT22;8784;50.94667800;7.08448400;2023-12-20T12:34:33;9.10;99.90
17333;DHT22;8784;50.94667800;7.08448400;2023-12-20T12:37:00;9.10;99.90
17333;DHT22;8784;50.94667800;7.08448400;2023-12-20T12:39:29;9.10;99.90
17333;DHT22;8784;50.94667800;7.08448400;2023-12-20T12:41:57;9.20;99.90
17333;DHT22;8784;50.94667800;7.08448400;2023-12-20T12:44:24;9.20;99.90
17333;DHT22;8784;50.94667800;7.08448400;2023-12-20T12:46:51;9.20;99.90
17333;DHT22;8784;50.94667800;7.08448400;2023-12-20T12:49:19;9.20;99.90
17333;DHT22;8784;50.94667800;7.08448400;2023-12-20T12:51:46;9.10;99.90
17333;DHT22;8784;50.94667800;7.08448400;2023-12-20T12:54:13;9.20;99.90
17333;DHT22;8784;50.94667800;7.08448400;2023-12-20T12:56:44;9.20;99.90
17333;DHT22;8784;50.94667800;7.08448400;2023-12-20T12:59:12;9.20;99.90
17333;DHT22;8784;50.94667800;7.08448400;2023-12-20T13:01:39;9.20;99.90
17333;DHT22;8784;50.94667800;7.08448400;2023-12-20T13:04:06;9.20;99.90
17333;DHT22;8784;50.94667800;7.08448400;2023-12-20T13:06:36;9.20;99.90
17333;DHT22;8784;50.94667800;7.08448400;2023-12-20T13:09:03;9.20;99.90
17333;DHT22;8784;50.94667800;7.08448400;2023-12-20T13:11:31;9.20;99.90
17333;DHT22;8784;50.94667800;7.08448400;2023-12-20T13:13:59;9.20;99.90
17333;DHT22;8784;50.94667800;7.08448400;2023-12-20T13:16:27;9.20;99.90
17333;DHT22;8784;50.94667800;7.08448400;2023-12-20T13:18:54;9.30;99.90
17333;DHT22;8784;50.94667800;7.08448400;2023-12-20T13:21:21;9.20;99.90
17333;DHT22;8784;50.94667800;7.08448400;2023-12-20T13:23:48;9.30;99.90
17333;DHT22;8784;50.94667800;7.08448400;2023-12-20T13:26:16;9.30;99.90
17333;DHT22;8784;50.94667800;7.08448400;2023-12-20T13:28:43;9.30;99.90
17333;DHT22;8784;50.94667800;7.08448400;2023-12-20T13:31:12;9.40;99.90
17333;DHT22;8784;50.94667800;7.08448400;2023-12-20T13:33:39;9.40;99.90
17333;DHT22;8784;50.94667800;7.08448400;2023-12-20T13:36:06;9.40;99.90
17333;DHT22;8784;50.94667800;7.08448400;2023-12-20T13:38:34;9.40;99.90
17333;DHT22;8784;50.94667800;7.08448400;2023-12-20T13:41:01;9.40;99.90
17333;DHT22;8784;50.94667800;7.08448400;2023-12-20T13:43:28;9.40;99.90
17333;DHT22;8784;50.94667800;7.08448400;2023-12-20T13:45:55;9.40;99.90
17333;DHT22;8784;50.94667800;7.08448400;2023-12-20T13:48:25;9.40;99.90
17333;DHT22;8784;50.94667800;7.08448400;2023-12-20T13:50:53;9.40;99.90
17333;DHT22;8784;50.94667800;7.08448400;2023-12-20T13:53:21;9.40;99.90
17333;DHT22;8784;50.94667800;7.08448400;2023-12-20T13:55:48;9.40;99.90
17333;DHT22;8784;50.94667800;7.08448400;2023-12-20T13:58:15;9.40;99.90
17333;DHT22;8784;50.94667800;7.08448400;2023-12-20T14:00:42;9.40;99.90
17333;DHT22;8784;50.94667800;7.08448400;2023-12-20T14:03:09;9.40;99.90
17333;DHT22;8784;50.94667800;7.08448400;2023-12-20T14:05:37;9.40;99.90
17333;DHT22;8784;50.94667800;7.08448400;2023-12-20T14:08:06;9.40;99.90
17333;DHT22;8784;50.94667800;7.08448400;2023-12-20T14:10:33;9.40;99.90
17333;DHT22;8784;50.94667800;7.08448400;2023-12-20T14:12:59;9.30;99.90
17333;DHT22;8784;50.94667800;7.08448400;2023-12-20T14:15:26;9.40;99.90
17333;DHT22;8784;50.94667800;7.08448400;2023-12-20T14:17:54;9.40;99.90
17333;DHT22;8784;50.94667800;7.08448400;2023-12-20T14:20:21;9.40;99.90
17333;DHT22;8784;50.94667800;7.08448400;2023-12-20T14:22:50;9.40;99.90
17333;DHT22;8784;50.94667800;7.08448400;2023-12-20T14:25:17;9.40;99.90
17333;DHT22;8784;50.94667800;7.08448400;2023-12-20T14:27:44;9.40;99.90
17333;DHT22;8784;50.94667800;7.08448400;2023-12-20T14:30:11;9.40;99.90
17333;DHT22;8784;50.94667800;7.08448400;2023-12-20T14:32:39;9.30;99.90
17333;DHT22;8784;50.94667800;7.08448400;2023-12-20T14:35:07;9.30;99.90
17333;DHT22;8784;50.94667800;7.08448400;2023-12-20T14:37:35;9.30;99.90
17333;DHT22;8784;50.94667800;7.08448400;2023-12-20T14:40:07;9.30;99.90
17333;DHT22;8784;50.94667800;7.08448400;2023-12-20T14:42:40;9.40;99.90
17333;DHT22;8784;50.94667800;7.08448400;2023-12-20T14:45:08;9.30;99.90
17333;DHT22;8784;50.94667800;7.08448400;2023-12-20T14:47:35;9.40;99.90
17333;DHT22;8784;50.94667800;7.08448400;2023-12-20T14:50:02;9.40;99.90
17333;DHT22;8784;50.94667800;7.08448400;2023-12-20T14:52:30;9.40;99.90
17333;DHT22;8784;50.94667800;7.08448400;2023-12-20T14:54:59;9.40;99.90
17333;DHT22;8784;50.94667800;7.08448400;2023-12-20T14:57:28;9.40;99.90
17333;DHT22;8784;50.94667800;7.08448400;2023-12-20T14:59:55;9.50;99.90
17333;DHT22;8784;50.94667800;7.08448400;2023-12-20T15:02:22;9.50;99.90
17333;DHT22;8784;50.94667800;7.08448400;2023-12-20T15:04:49;9.50;99.90
17333;DHT22;8784;50.94667800;7.08448400;2023-12-20T15:07:16;9.50;99.90
17333;DHT22;8784;50.94667800;7.08448400;2023-12-20T15:09:43;9.50;99.90
17333;DHT22;8784;50.94667800;7.08448400;2023-12-20T15:12:12;9.40;99.90
17333;DHT22;8784;50.94667800;7.08448400;2023-12-20T15:14:40;9.50;99.90
17333;DHT22;8784;50.94667800;7.08448400;2023-12-20T15:17:07;9.50;99.90
17333;DHT22;8784;50.94667800;7.08448400;2023-12-20T15:19:34;9.40;99.90
17333;DHT22;8784;50.94667800;7.08448400;2023-12-20T15:22:01;9.40;99.90
17333;DHT22;8784;50.94667800;7.08448400;2023-12-20T15:24:29;9.40;99.90
17333;DHT22;8784;50.94667800;7.08448400;2023-12-20T15:27:04;9.40;99.90
17333;DHT22;8784;50.94667800;7.08448400;2023-12-20T15:29:31;9.40;99.90
17333;DHT22;8784;50.94667800;7.08448400;2023-12-20T15:32:00;9.40;99.90
17333;DHT22;8784;50.94667800;7.08448400;2023-12-20T15:34:27;9.40;99.90
17333;DHT22;8784;50.94667800;7.08448400;2023-12-20T15:36:54;9.40;99.90
17333;DHT22;8784;50.94667800;7.08448400;2023-12-20T15:39:21;9.40;99.90
17333;DHT22;8784;50.94667800;7.08448400;2023-12-20T15:41:48;9.40;99.90
17333;DHT22;8784;50.94667800;7.08448400;2023-12-20T15:44:16;9.40;99.90
17333;DHT22;8784;50.94667800;7.08448400;2023-12-20T15:46:43;9.40;99.90
17333;DHT22;8784;50.94667800;7.08448400;2023-12-20T15:49:11;9.30;99.90
17333;DHT22;8784;50.94667800;7.08448400;2023-12-20T15:51:39;9.30;99.90
17333;DHT22;8784;50.94667800;7.08448400;2023-12-20T15:54:06;9.40;99.90
17333;DHT22;8784;50.94667800;7.08448400;2023-12-20T15:56:33;9.40;99.90
17333;DHT22;8784;50.94667800;7.08448400;2023-12-20T15:59:02;9.40;99.90
17333;DHT22;8784;50.94667800;7.08448400;2023-12-20T16:01:29;9.40;99.90
17333;DHT22;8784;50.94667800;7.08448400;2023-12-20T16:03:57;9.40;99.90
17333;DHT22;8784;50.94667800;7.08448400;2023-12-20T16:06:25;9.40;99.90
17333;DHT22;8784;50.94667800;7.08448400;2023-12-20T16:08:52;9.40;99.90
17333;DHT22;8784;50.94667800;7.08448400;2023-12-20T16:11:19;9.40;99.90
17333;DHT22;8784;50.94667800;7.08448400;2023-12-20T16:13:46;9.40;99.90
17333;DHT22;8784;50.94667800;7.08448400;2023-12-20T16:16:13;9.40;99.90
17333;DHT22;8784;50.94667800;7.08448400;2023-12-20T16:18:40;9.40;99.90
17333;DHT22;8784;50.94667800;7.08448400;2023-12-20T16:21:07;9.50;99.90
17333;DHT22;8784;50.94667800;7.08448400;2023-12-20T16:23:35;9.40;99.90
17333;DHT22;8784;50.94667800;7.08448400;2023-12-20T16:26:02;9.40;99.90
17333;DHT22;8784;50.94667800;7.08448400;2023-12-20T16:28:29;9.50;99.90
17333;DHT22;8784;50.94667800;7.08448400;2023-12-20T16:30:56;9.50;99.90
17333;DHT22;8784;50.94667800;7.08448400;2023-12-20T16:33:23;9.50;99.90
17333;DHT22;8784;50.94667800;7.08448400;2023-12-20T16:35:50;9.40;99.90
17333;DHT22;8784;50.94667800;7.08448400;2023-12-20T16:38:17;9.50;99.90
17333;DHT22;8784;50.94667800;7.08448400;2023-12-20T16:40:45;9.40;99.90
17333;DHT22;8784;50.94667800;7.08448400;2023-12-20T16:43:12;9.40;99.90
17333;DHT22;8784;50.94667800;7.08448400;2023-12-20T16:45:39;9.40;99.90
17333;DHT22;8784;50.94667800;7.08448400;2023-12-20T16:48:06;9.40;99.90
17333;DHT22;8784;50.94667800;7.08448400;2023-12-20T16:50:33;9.40;99.90
17333;DHT22;8784;50.94667800;7.08448400;2023-12-20T16:53:00;9.40;99.90
17333;DHT22;8784;50.94667800;7.08448400;2023-12-20T16:55:27;9.40;99.90
17333;DHT22;8784;50.94667800;7.08448400;2023-12-20T16:57:55;9.40;99.90
17333;DHT22;8784;50.94667800;7.08448400;2023-12-20T17:00:22;9.40;99.90
17333;DHT22;8784;50.94667800;7.08448400;2023-12-20T17:02:52;9.40;99.90
17333;DHT22;8784;50.94667800;7.08448400;2023-12-20T17:05:18;9.40;99.90
17333;DHT22;8784;50.94667800;7.08448400;2023-12-20T17:07:45;9.50;99.90
17333;DHT22;8784;50.94667800;7.08448400;2023-12-20T17:10:12;9.50;99.90
17333;DHT22;8784;50.94667800;7.08448400;2023-12-20T17:12:39;9.50;99.90
17333;DHT22;8784;50.94667800;7.08448400;2023-12-20T17:15:09;9.50;99.90
17333;DHT22;8784;50.94667800;7.08448400;2023-12-20T17:17:36;9.60;99.90
17333;DHT22;8784;50.94667800;7.08448400;2023-12-20T17:20:03;9.60;99.90
17333;DHT22;8784;50.94667800;7.08448400;2023-12-20T17:22:30;9.60;99.90
17333;DHT22;8784;50.94667800;7.08448400;2023-12-20T17:24:56;9.60;99.90
17333;DHT22;8784;50.94667800;7.08448400;2023-12-20T17:27:23;9.60;99.90
17333;DHT22;8784;50.94667800;7.08448400;2023-12-20T17:29:50;9.60;99.90
17333;DHT22;8784;50.94667800;7.08448400;2023-12-20T17:32:19;9.60;99.90
17333;DHT22;8784;50.94667800;7.08448400;2023-12-20T17:34:45;9.60;99.90
17333;DHT22;8784;50.94667800;7.08448400;2023-12-20T17:37:12;9.60;99.90
17333;DHT22;8784;50.94667800;7.08448400;2023-12-20T17:39:39;9.60;99.90
17333;DHT22;8784;50.94667800;7.08448400;2023-12-20T17:42:06;9.50;99.90
17333;DHT22;8784;50.94667800;7.08448400;2023-12-20T17:44:33;9.60;99.90
17333;DHT22;8784;50.94667800;7.08448400;2023-12-20T17:47:00;9.60;99.90
17333;DHT22;8784;50.94667800;7.08448400;2023-12-20T17:49:28;9.70;99.90
17333;DHT22;8784;50.94667800;7.08448400;2023-12-20T17:51:56;9.70;99.90
17333;DHT22;8784;50.94667800;7.08448400;2023-12-20T17:54:23;9.70;99.90
17333;DHT22;8784;50.94667800;7.08448400;2023-12-20T17:56:51;9.70;99.90
17333;DHT22;8784;50.94667800;7.08448400;2023-12-20T17:59:18;9.70;99.90
17333;DHT22;8784;50.94667800;7.08448400;2023-12-20T18:01:45;9.70;99.90
17333;DHT22;8784;50.94667800;7.08448400;2023-12-20T18:04:12;9.70;99.90
17333;DHT22;8784;50.94667800;7.08448400;2023-12-20T18:06:41;9.70;99.90
17333;DHT22;8784;50.94667800;7.08448400;2023-12-20T18:09:08;9.70;99.90
17333;DHT22;8784;50.94667800;7.08448400;2023-12-20T18:11:35;9.70;99.90
17333;DHT22;8784;50.94667800;7.08448400;2023-12-20T18:14:02;9.80;99.90
17333;DHT22;8784;50.94667800;7.08448400;2023-12-20T18:16:29;9.80;99.90
17333;DHT22;8784;50.94667800;7.08448400;2023-12-20T18:18:56;9.80;99.90
17333;DHT22;8784;50.94667800;7.08448400;2023-12-20T18:21:23;9.80;99.90
17333;DHT22;8784;50.94667800;7.08448400;2023-12-20T18:23:52;9.90;99.90
17333;DHT22;8784;50.94667800;7.08448400;2023-12-20T18:26:19;9.90;99.90
17333;DHT22;8784;50.94667800;7.08448400;2023-12-20T18:28:46;9.90;99.90
17333;DHT22;8784;50.94667800;7.08448400;2023-12-20T18:31:14;9.80;99.90